Montpezat d'Agenais

FR-0411 · Lot-et-Garonne, Nouvelle-Aquitaine, 法国

罗盘
风向 的 风向 310° Montpezat d'Agenais 10/28
风向 到 风: 13 kt, 阵阵 24 kt, 4 beaufort

11 kt

7 kt
改变
0 ft 1.000 2.000 3.000 4.000 5.000
Cloud Cloud Cloud Cloud Cloud Cloud Cloud Cloud
OVC 1.400
METAR LFBA 262200Z AUTO 31013G24KT 9999 OVC014 08/06 Q1005

METAR Montpezat d'Agenais - FR-0411

Montpezat d'Agenais是,法国中的小机场。 该机场位于纬度44,36515和经度0,48941。 该机场有2条跑道: 10/28 和 15/33. 这个机场没有ICAO代码,我们使用FR-0411作为参考。 机场在Bordeaux FIR中。

该航空气象观测是针对Agen-La Garenne Airport在2024年2月26日 23:00, 当地时间进行的。

机场观察

风向为310°,速度为13 kt。 已测得24 kt的阵风。

可见度为10 km 或者更多。

有乌云密布在1.400 ft的高度。 破损或更高的上限为1.400 ft。

温度为8 °C,阵风为3 °C。 露点为6 °C,相对湿度为87%。 海平面上的气压为1005 hPa (QNH)。

白天

今天,太阳从07:40升起,在18:41降落。 这适用于Montpezat d'Agenais,世界夏令时可能有所不同。 当地时间与世界标准时间之间的时差为+1 小时。 当前,没有夏令时有效。

公司介绍

我们没有关于这个机场的公司信息。

体会

到Vliegles.nl去找飞行课程,跳伞和其他飞行体验。 浏览页面,了解Montpezat d'Agenais附近所有可用的活动。 你也可以使用搜索功能来寻找你所在地附近的特定飞行课程、跳伞或其他飞行体验。

跑道

Id 标题 侧风 逆风 侧风 %
10/28 100°-280° 7-12 kt 11-21 kt 50 %
15/33 150°-330° 4-8 kt 12-23 kt 34 %

逆风成分最大的方向会被突出显示,并用于横风计算。 这并不一定意味着这个方向在使用。

乌云

1.400 ft OVC 乌云密布

温度 & 天气

温度 8 °C
露点 6 °C
相对湿度 87%
风寒 3 °C
Kp-index 0 (0-9)

白天

日出
07:40 (8:26)
中午
13:10
日落
18:40

小工具

你想在你的网站上有一个关于Montpezat d'Agenais的当前航空天气(METAR)的小部件吗?

显示HTML代码
?>